Time;durP1;ratioP1;P1;durP2;ratioP2;P2;SDS_P1;SDS_P2;PMS_P1;PMS_P2;Temp;Humidity;BMP_temperature;BMP_pressure;BME280_temperature;BME280_humidity;BME280_pressure;Samples;Min_cycle;Max_cycle;Signal;HPM_P1;HPM_P2
2022/07/18 00:00:17;;;;;;;4.20;1.10;;;;;;;;;;10441451;28;20248;-74
2022/07/18 00:05:18;;;;;;;3.50;1.05;;;;;;;;;;10440382;28;20183;-74
2022/07/18 00:10:19;;;;;;;0.77;0.77;;;;;;;;;;10449533;28;20206;-74
2022/07/18 00:15:20;;;;;;;1.95;0.80;;;;;;;;;;10443215;28;20650;-74
2022/07/18 00:20:21;;;;;;;2.85;0.70;;;;;;;;;;10449139;28;20214;-74
2022/07/18 00:25:23;;;;;;;2.13;0.80;;;;;;;;;;10448113;28;20726;-74
2022/07/18 00:30:24;;;;;;;1.63;0.80;;;;;;;;;;10459571;28;20241;-73
2022/07/18 00:35:25;;;;;;;1.98;0.90;;;;;;;;;;10446391;28;20662;-73
2022/07/18 00:40:26;;;;;;;1.88;1.00;;;;;;;;;;10448851;28;20835;-73
2022/07/18 00:45:27;;;;;;;1.05;0.75;;;;;;;;;;10445784;28;20274;-73
2022/07/18 00:50:28;;;;;;;1.90;0.98;;;;;;;;;;10450517;28;20214;-73
2022/07/18 00:55:29;;;;;;;2.53;1.10;;;;;;;;;;10446260;28;21201;-74
2022/07/18 01:05:50;;;;;;;2.47;0.90;;;;;;;;;;10454260;28;20178;-73
2022/07/18 01:10:53;;;;;;;2.13;1.10;;;;;;;;;;10448715;28;20206;-73
2022/07/18 01:15:54;;;;;;;1.52;0.93;;;;;;;;;;10430011;28;20549;-73
2022/07/18 01:20:56;;;;;;;1.00;1.00;;;;;;;;;;10460946;28;20226;-73
2022/07/18 01:25:57;;;;;;;3.78;1.10;;;;;;;;;;10446419;28;21007;-73
2022/07/18 01:30:58;;;;;;;5.97;1.50;;;;;;;;;;10444782;28;20229;-73
2022/07/18 01:36:00;;;;;;;1.65;1.27;;;;;;;;;;10450109;28;20191;-73
2022/07/18 01:41:01;;;;;;;3.00;1.35;;;;;;;;;;10447707;28;20183;-73
2022/07/18 01:46:02;;;;;;;1.10;1.10;;;;;;;;;;10444322;28;20344;-73
2022/07/18 01:51:03;;;;;;;1.70;1.20;;;;;;;;;;10446125;28;20255;-73
2022/07/18 01:56:05;;;;;;;3.50;1.25;;;;;;;;;;10448423;28;20198;-74
2022/07/18 02:01:06;;;;;;;6.13;1.60;;;;;;;;;;10444438;28;20207;-73
2022/07/18 02:06:07;;;;;;;5.78;1.70;;;;;;;;;;10456378;28;20213;-72
2022/07/18 02:11:08;;;;;;;2.15;1.30;;;;;;;;;;10452992;28;20223;-73
2022/07/18 02:16:09;;;;;;;1.20;1.10;;;;;;;;;;10441943;28;20910;-73
2022/07/18 02:21:10;;;;;;;2.20;1.23;;;;;;;;;;10443093;28;20298;-74
2022/07/18 02:26:12;;;;;;;4.80;1.33;;;;;;;;;;10442459;28;20186;-73
2022/07/18 02:31:13;;;;;;;1.50;1.20;;;;;;;;;;10441404;28;21301;-73
2022/07/18 02:36:14;;;;;;;3.60;1.50;;;;;;;;;;10444962;28;20179;-73
2022/07/18 02:41:15;;;;;;;5.63;1.63;;;;;;;;;;10453373;28;20185;-73
2022/07/18 02:46:16;;;;;;;1.23;1.23;;;;;;;;;;10449462;28;20264;-73
2022/07/18 02:51:17;;;;;;;1.50;1.40;;;;;;;;;;10454254;28;20206;-73
2022/07/18 02:56:18;;;;;;;4.88;1.45;;;;;;;;;;10448793;28;20283;-73
2022/07/18 03:01:19;;;;;;;3.58;1.42;;;;;;;;;;10440914;28;20301;-74
2022/07/18 03:06:20;;;;;;;4.95;1.65;;;;;;;;;;10442832;28;20189;-73
2022/07/18 03:11:21;;;;;;;3.17;1.30;;;;;;;;;;10440407;28;20585;-73
2022/07/18 03:16:22;;;;;;;1.38;1.30;;;;;;;;;;10442642;28;21036;-74
2022/07/18 03:21:23;;;;;;;1.70;1.60;;;;;;;;;;10441853;28;20214;-73
2022/07/18 03:26:24;;;;;;;1.60;1.48;;;;;;;;;;10439252;28;20198;-73
2022/07/18 03:31:25;;;;;;;1.45;1.35;;;;;;;;;;10439980;28;20225;-73
2022/07/18 03:36:26;;;;;;;3.05;1.80;;;;;;;;;;10443568;28;20201;-74
2022/07/18 03:41:27;;;;;;;1.63;1.52;;;;;;;;;;10438854;28;20238;-74
2022/07/18 03:46:28;;;;;;;3.88;1.70;;;;;;;;;;10440571;28;20175;-73
2022/07/18 03:51:30;;;;;;;3.35;1.42;;;;;;;;;;10453672;28;20237;-74
2022/07/18 03:56:31;;;;;;;1.52;1.42;;;;;;;;;;10438550;28;20625;-73
2022/07/18 04:01:32;;;;;;;2.53;1.45;;;;;;;;;;10447862;28;20313;-74
2022/07/18 04:06:33;;;;;;;2.10;1.95;;;;;;;;;;10456078;28;20179;-74
2022/07/18 04:11:34;;;;;;;2.63;2.15;;;;;;;;;;10443240;28;20249;-74
2022/07/18 04:16:35;;;;;;;2.20;2.10;;;;;;;;;;10446116;28;20171;-74
2022/07/18 04:21:36;;;;;;;3.72;1.98;;;;;;;;;;10455247;28;20202;-73
2022/07/18 04:26:38;;;;;;;3.70;1.77;;;;;;;;;;10451330;28;20653;-73
2022/07/18 04:31:39;;;;;;;1.90;1.80;;;;;;;;;;10445011;28;20604;-74
2022/07/18 04:36:40;;;;;;;3.38;2.03;;;;;;;;;;10447418;28;20198;-73
2022/07/18 04:41:41;;;;;;;2.13;2.03;;;;;;;;;;10447885;28;20182;-74
2022/07/18 04:46:42;;;;;;;3.70;2.13;;;;;;;;;;10447615;28;20270;-74
2022/07/18 04:51:43;;;;;;;3.30;2.13;;;;;;;;;;10450605;28;20339;-73
2022/07/18 04:56:44;;;;;;;2.38;2.08;;;;;;;;;;10455458;28;20213;-73
2022/07/18 05:01:45;;;;;;;2.47;2.38;;;;;;;;;;10448178;28;20706;-73
2022/07/18 05:06:46;;;;;;;3.22;1.90;;;;;;;;;;10446147;28;20206;-73
2022/07/18 05:11:47;;;;;;;2.78;1.80;;;;;;;;;;10432872;28;20202;-73
2022/07/18 05:16:48;;;;;;;2.00;1.90;;;;;;;;;;10442764;28;20659;-73
2022/07/18 05:21:49;;;;;;;6.53;2.70;;;;;;;;;;10445509;28;20230;-74
2022/07/18 05:26:51;;;;;;;2.88;1.95;;;;;;;;;;10445610;28;20229;-74
2022/07/18 05:31:52;;;;;;;2.22;2.00;;;;;;;;;;10439833;28;20223;-73
2022/07/18 05:36:53;;;;;;;2.42;2.33;;;;;;;;;;10446465;28;20188;-73
2022/07/18 05:41:54;;;;;;;1.88;1.77;;;;;;;;;;10444852;28;20187;-74
2022/07/18 05:46:55;;;;;;;5.93;1.70;;;;;;;;;;10443933;28;20186;-72
2022/07/18 05:51:56;;;;;;;3.25;2.28;;;;;;;;;;10445100;28;20621;-73
2022/07/18 05:56:57;;;;;;;2.10;1.88;;;;;;;;;;10443336;28;20182;-73
2022/07/18 06:01:58;;;;;;;1.95;1.80;;;;;;;;;;10441847;28;20290;-74
2022/07/18 06:06:59;;;;;;;4.40;1.50;;;;;;;;;;10441873;28;20178;-71
2022/07/18 06:12:01;;;;;;;3.35;1.80;;;;;;;;;;10443370;28;20260;-74
2022/07/18 06:17:02;;;;;;;1.70;1.60;;;;;;;;;;10446604;28;20199;-74
2022/07/18 06:22:03;;;;;;;8.05;1.98;;;;;;;;;;10442791;28;20211;-73
2022/07/18 06:27:06;;;;;;;1.65;1.42;;;;;;;;;;10441274;28;20183;-73
2022/07/18 06:32:07;;;;;;;2.78;1.50;;;;;;;;;;10447411;28;20226;-74
2022/07/18 06:37:08;;;;;;;1.98;1.30;;;;;;;;;;10443263;28;20262;-74
2022/07/18 06:42:09;;;;;;;6.93;1.48;;;;;;;;;;10451857;28;20187;-73
2022/07/18 06:47:10;;;;;;;6.60;1.45;;;;;;;;;;10445946;28;20194;-73
2022/07/18 06:52:14;;;;;;;1.50;1.40;;;;;;;;;;10443070;28;20203;-73
2022/07/18 06:57:15;;;;;;;3.22;1.13;;;;;;;;;;10442422;28;20188;-74
2022/07/18 07:02:16;;;;;;;3.55;1.23;;;;;;;;;;10454851;28;20198;-74
2022/07/18 07:07:18;;;;;;;2.72;0.90;;;;;;;;;;10449581;28;20265;-73
2022/07/18 07:12:19;;;;;;;3.92;1.00;;;;;;;;;;10447455;28;20272;-73
2022/07/18 07:17:20;;;;;;;1.20;1.08;;;;;;;;;;10448208;28;20195;-73
2022/07/18 07:22:21;;;;;;;1.27;1.17;;;;;;;;;;10438516;28;20213;-72
2022/07/18 07:27:22;;;;;;;1.33;1.23;;;;;;;;;;10438272;28;20712;-73
2022/07/18 07:32:23;;;;;;;3.38;1.10;;;;;;;;;;10438393;28;20258;-74
2022/07/18 07:37:25;;;;;;;4.65;1.38;;;;;;;;;;10442533;28;20203;-74
2022/07/18 07:42:26;;;;;;;2.85;1.10;;;;;;;;;;10448210;28;20309;-73
2022/07/18 07:47:28;;;;;;;4.50;1.10;;;;;;;;;;10454780;28;20559;-74
2022/07/18 07:52:30;;;;;;;1.85;1.10;;;;;;;;;;10446257;28;20215;-74
2022/07/18 07:57:31;;;;;;;2.42;1.05;;;;;;;;;;10439802;28;20526;-73
2022/07/18 08:02:32;;;;;;;1.10;1.00;;;;;;;;;;10437161;28;20305;-73
2022/07/18 08:07:33;;;;;;;3.47;1.25;;;;;;;;;;10436274;28;20190;-72
2022/07/18 08:12:34;;;;;;;4.15;1.10;;;;;;;;;;10436974;28;20214;-72
2022/07/18 08:17:35;;;;;;;2.15;0.80;;;;;;;;;;10436854;28;20194;-73
2022/07/18 08:22:36;;;;;;;5.43;0.95;;;;;;;;;;10438837;28;20186;-72
2022/07/18 08:27:37;;;;;;;1.00;0.60;;;;;;;;;;10439213;28;20198;-72
2022/07/18 08:32:38;;;;;;;4.00;1.10;;;;;;;;;;10437243;28;20581;-73
2022/07/18 08:37:39;;;;;;;2.70;0.93;;;;;;;;;;10445876;28;20277;-72
2022/07/18 08:42:40;;;;;;;2.85;1.02;;;;;;;;;;10447899;28;20261;-72
2022/07/18 08:47:44;;;;;;;1.60;0.80;;;;;;;;;;10446446;28;20210;-72
2022/07/18 08:52:46;;;;;;;1.15;0.80;;;;;;;;;;10445826;28;20225;-73
2022/07/18 08:57:47;;;;;;;0.93;0.60;;;;;;;;;;10447271;28;20187;-73
2022/07/18 09:02:56;;;;;;;0.85;0.85;;;;;;;;;;10449596;28;20246;-73
2022/07/18 09:08:19;;;;;;;2.35;0.55;;;;;;;;;;10445951;28;20171;-73
2022/07/18 09:13:38;;;;;;;1.88;1.13;;;;;;;;;;10462051;28;20237;-73
2022/07/18 09:18:42;;;;;;;2.85;1.10;;;;;;;;;;10438086;28;20580;-73
2022/07/18 09:23:44;;;;;;;3.10;1.20;;;;;;;;;;10438217;28;20567;-72
2022/07/18 09:28:49;;;;;;;1.92;1.83;;;;;;;;;;10446221;28;20175;-73
2022/07/18 09:34:00;;;;;;;1.77;1.52;;;;;;;;;;10447086;28;20288;-73
2022/07/18 09:39:01;;;;;;;1.88;1.17;;;;;;;;;;10448422;28;20202;-73
2022/07/18 09:44:14;;;;;;;2.78;1.65;;;;;;;;;;10444823;28;20277;-72
2022/07/18 09:49:15;;;;;;;1.52;1.42;;;;;;;;;;10445760;28;20272;-72
2022/07/18 09:54:16;;;;;;;3.88;1.73;;;;;;;;;;10446093;28;20284;-72
2022/07/18 09:59:17;;;;;;;2.17;1.58;;;;;;;;;;10445319;28;20183;-72
2022/07/18 10:04:18;;;;;;;5.50;1.77;;;;;;;;;;10457607;28;20218;-72
2022/07/18 10:09:19;;;;;;;2.17;1.98;;;;;;;;;;10455467;28;20217;-72
2022/07/18 10:14:21;;;;;;;3.50;1.70;;;;;;;;;;10440161;28;20559;-72
2022/07/18 10:19:22;;;;;;;1.50;1.40;;;;;;;;;;10455544;28;20202;-72
2022/07/18 10:24:24;;;;;;;2.55;1.60;;;;;;;;;;10441876;28;20381;-72
2022/07/18 10:29:26;;;;;;;2.50;1.63;;;;;;;;;;10443423;28;20190;-72
2022/07/18 10:34:31;;;;;;;4.72;1.55;;;;;;;;;;10443392;28;20262;-72
2022/07/18 10:39:39;;;;;;;3.83;1.25;;;;;;;;;;10441078;28;20221;-72
2022/07/18 10:44:41;;;;;;;2.00;1.25;;;;;;;;;;10440719;28;20188;-72
2022/07/18 10:49:48;;;;;;;4.38;1.17;;;;;;;;;;10453083;28;20233;-71
2022/07/18 10:55:16;;;;;;;2.35;1.55;;;;;;;;;;10441278;28;20211;-72
2022/07/18 11:00:23;;;;;;;2.47;1.20;;;;;;;;;;10439347;28;20209;-72
2022/07/18 11:05:24;;;;;;;1.10;1.10;;;;;;;;;;10439394;28;20179;-72
2022/07/18 11:10:44;;;;;;;3.22;1.10;;;;;;;;;;10441362;28;20190;-71
2022/07/18 11:16:05;;;;;;;1.75;1.35;;;;;;;;;;10438555;28;20634;-73
2022/07/18 11:21:18;;;;;;;1.02;1.02;;;;;;;;;;10438221;28;20709;-71
2022/07/18 11:26:20;;;;;;;1.50;1.27;;;;;;;;;;10438983;28;20183;-72
2022/07/18 11:31:21;;;;;;;2.13;1.45;;;;;;;;;;10442210;28;20258;-73
2022/07/18 11:36:28;;;;;;;1.85;1.10;;;;;;;;;;10451867;28;20175;-73
2022/07/18 11:41:29;;;;;;;1.80;1.17;;;;;;;;;;10444505;28;20277;-72
2022/07/18 11:46:30;;;;;;;2.33;1.40;;;;;;;;;;10445255;28;20197;-73
2022/07/18 11:51:36;;;;;;;1.33;1.17;;;;;;;;;;10442293;28;20329;-73
2022/07/18 11:56:47;;;;;;;2.05;1.02;;;;;;;;;;10439892;28;20186;-73
2022/07/18 12:01:52;;;;;;;1.20;1.13;;;;;;;;;;10439192;28;20298;-72
2022/07/18 12:07:12;;;;;;;1.90;1.45;;;;;;;;;;10452202;28;20194;-73
2022/07/18 12:12:14;;;;;;;3.75;1.40;;;;;;;;;;10449345;28;20209;-73
2022/07/18 12:17:15;;;;;;;3.97;1.38;;;;;;;;;;10435549;28;20207;-73
2022/07/18 12:22:16;;;;;;;1.67;1.38;;;;;;;;;;10448359;28;20190;-72
2022/07/18 12:27:18;;;;;;;1.10;1.00;;;;;;;;;;10447247;28;20369;-72
2022/07/18 12:32:23;;;;;;;1.40;0.73;;;;;;;;;;10451280;28;20305;-72
2022/07/18 12:37:25;;;;;;;3.22;0.85;;;;;;;;;;10447899;28;20206;-72
2022/07/18 12:42:30;;;;;;;0.75;0.75;;;;;;;;;;10447355;28;20662;-72
2022/07/18 12:47:32;;;;;;;1.20;0.95;;;;;;;;;;10448307;28;20671;-72
2022/07/18 12:52:33;;;;;;;1.00;0.90;;;;;;;;;;10447399;28;20216;-72
2022/07/18 12:57:34;;;;;;;1.73;1.13;;;;;;;;;;10445983;28;20515;-72
2022/07/18 13:02:36;;;;;;;1.05;0.85;;;;;;;;;;10444365;28;20216;-72
2022/07/18 13:07:37;;;;;;;1.75;1.00;;;;;;;;;;10448160;28;20249;-72
2022/07/18 13:12:38;;;;;;;7.70;1.10;;;;;;;;;;10445103;28;20289;-72
2022/07/18 13:17:39;;;;;;;1.90;0.82;;;;;;;;;;10448233;28;20206;-72
2022/07/18 13:22:40;;;;;;;0.90;0.80;;;;;;;;;;10445196;28;20197;-73
2022/07/18 13:27:41;;;;;;;1.98;0.95;;;;;;;;;;10446027;28;20202;-73
2022/07/18 13:32:44;;;;;;;0.93;0.90;;;;;;;;;;10443848;28;20264;-72
2022/07/18 13:37:46;;;;;;;1.20;1.00;;;;;;;;;;10447848;28;20182;-72
2022/07/18 13:42:47;;;;;;;2.95;1.00;;;;;;;;;;10435014;28;20656;-72
2022/07/18 13:47:48;;;;;;;2.15;0.98;;;;;;;;;;10445009;28;20208;-72
2022/07/18 13:52:49;;;;;;;1.38;0.80;;;;;;;;;;10445686;28;20317;-72
2022/07/18 13:57:51;;;;;;;0.80;0.80;;;;;;;;;;10445170;28;20178;-73
2022/07/18 14:02:52;;;;;;;2.05;0.88;;;;;;;;;;10445587;28;20303;-72
2022/07/18 14:07:53;;;;;;;0.80;0.80;;;;;;;;;;10442940;28;20694;-72
2022/07/18 14:12:54;;;;;;;1.65;0.90;;;;;;;;;;10445086;28;20213;-72
2022/07/18 14:17:55;;;;;;;1.52;0.80;;;;;;;;;;10443769;28;20417;-72
2022/07/18 14:22:56;;;;;;;0.70;0.70;;;;;;;;;;10441162;28;20253;-72
2022/07/18 14:27:57;;;;;;;2.95;0.90;;;;;;;;;;10446754;28;20578;-73
2022/07/18 14:32:58;;;;;;;4.50;0.90;;;;;;;;;;10452290;28;20222;-73
2022/07/18 14:37:59;;;;;;;0.60;0.60;;;;;;;;;;10448886;28;20179;-72
2022/07/18 14:43:00;;;;;;;0.55;0.55;;;;;;;;;;10445856;28;20208;-72
2022/07/18 14:48:01;;;;;;;1.63;0.75;;;;;;;;;;10443568;28;20729;-72
2022/07/18 14:53:02;;;;;;;1.85;0.80;;;;;;;;;;10441316;28;20299;-72
2022/07/18 14:58:03;;;;;;;3.22;0.73;;;;;;;;;;10445711;28;20200;-73
2022/07/18 15:03:05;;;;;;;3.17;0.80;;;;;;;;;;10440108;28;20222;-72
2022/07/18 15:08:06;;;;;;;1.67;1.00;;;;;;;;;;10443902;28;20182;-72
2022/07/18 15:13:07;;;;;;;1.90;0.95;;;;;;;;;;10443665;28;20209;-71
2022/07/18 15:18:08;;;;;;;12.43;1.35;;;;;;;;;;10442315;28;20206;-73
2022/07/18 15:23:09;;;;;;;1.73;0.90;;;;;;;;;;10438523;28;20191;-73
2022/07/18 15:28:10;;;;;;;2.05;0.70;;;;;;;;;;10441480;28;20182;-72
2022/07/18 15:33:11;;;;;;;2.45;0.70;;;;;;;;;;10451581;28;20240;-72
2022/07/18 15:38:12;;;;;;;2.35;1.27;;;;;;;;;;10446512;28;20182;-73
2022/07/18 15:43:13;;;;;;;2.47;0.82;;;;;;;;;;10441449;28;20209;-73
2022/07/18 15:48:14;;;;;;;5.57;0.70;;;;;;;;;;10438379;28;20209;-73
2022/07/18 15:53:16;;;;;;;3.55;0.90;;;;;;;;;;10447321;28;20325;-73
2022/07/18 15:58:17;;;;;;;1.73;0.65;;;;;;;;;;10444376;28;20182;-73
2022/07/18 16:03:18;;;;;;;1.20;0.80;;;;;;;;;;10447233;28;21065;-73
2022/07/18 16:08:19;;;;;;;2.67;0.80;;;;;;;;;;10453087;28;20638;-73
2022/07/18 16:13:20;;;;;;;2.55;0.90;;;;;;;;;;10455424;28;20928;-73
2022/07/18 16:18:21;;;;;;;2.47;0.90;;;;;;;;;;10440585;28;20217;-73
2022/07/18 16:23:22;;;;;;;3.05;0.80;;;;;;;;;;10442543;28;20183;-73
2022/07/18 16:28:23;;;;;;;0.80;0.80;;;;;;;;;;10424342;28;20198;-73
2022/07/18 16:33:24;;;;;;;1.23;0.70;;;;;;;;;;10438440;28;20244;-73
2022/07/18 16:38:25;;;;;;;1.65;0.65;;;;;;;;;;10443534;28;20572;-72
2022/07/18 16:43:27;;;;;;;2.42;0.70;;;;;;;;;;10443985;28;20786;-74
2022/07/18 16:48:28;;;;;;;2.75;0.90;;;;;;;;;;10448119;28;20253;-73
2022/07/18 16:53:29;;;;;;;1.48;0.80;;;;;;;;;;10425913;28;20276;-73
2022/07/18 16:58:31;;;;;;;2.92;0.65;;;;;;;;;;10443913;28;20198;-73
2022/07/18 17:03:32;;;;;;;4.53;0.90;;;;;;;;;;10442929;28;20751;-74
2022/07/18 17:08:33;;;;;;;1.98;1.00;;;;;;;;;;10431019;28;20178;-74
2022/07/18 17:13:35;;;;;;;1.73;1.02;;;;;;;;;;10444161;28;20199;-74
2022/07/18 17:18:36;;;;;;;2.85;0.93;;;;;;;;;;10456624;28;21024;-73
2022/07/18 17:23:37;;;;;;;0.70;0.70;;;;;;;;;;10448228;28;20259;-73
2022/07/18 17:28:38;;;;;;;1.88;0.90;;;;;;;;;;10447067;28;20186;-73
2022/07/18 17:33:40;;;;;;;3.03;0.93;;;;;;;;;;10443994;28;20234;-72
2022/07/18 17:38:41;;;;;;;1.17;1.05;;;;;;;;;;10440499;28;20186;-75
2022/07/18 17:43:45;;;;;;;2.40;0.73;;;;;;;;;;10446711;28;20522;-74
2022/07/18 17:48:46;;;;;;;1.48;0.98;;;;;;;;;;10447651;28;20203;-74
2022/07/18 17:53:48;;;;;;;1.67;0.80;;;;;;;;;;10445980;28;20211;-74
2022/07/18 17:58:49;;;;;;;0.93;0.93;;;;;;;;;;10446614;28;20178;-74
2022/07/18 18:03:50;;;;;;;4.18;0.98;;;;;;;;;;10441808;28;20330;-75
2022/07/18 18:08:51;;;;;;;4.10;0.70;;;;;;;;;;10442546;28;20187;-74
2022/07/18 18:13:52;;;;;;;2.85;0.85;;;;;;;;;;10444697;28;20210;-74
2022/07/18 18:18:53;;;;;;;3.60;1.38;;;;;;;;;;10452812;28;20255;-74
2022/07/18 18:23:54;;;;;;;1.70;0.70;;;;;;;;;;10450131;28;20254;-75
2022/07/18 18:28:55;;;;;;;1.65;1.08;;;;;;;;;;10445997;28;20190;-74
2022/07/18 18:33:56;;;;;;;0.73;0.73;;;;;;;;;;10442761;28;20237;-74
2022/07/18 18:38:57;;;;;;;2.90;0.65;;;;;;;;;;10441734;28;20938;-74
2022/07/18 18:43:58;;;;;;;1.67;1.05;;;;;;;;;;10445125;28;20193;-74
2022/07/18 18:49:00;;;;;;;3.20;0.90;;;;;;;;;;10444707;28;20211;-74
2022/07/18 18:54:01;;;;;;;4.65;1.08;;;;;;;;;;10445771;28;20345;-74
2022/07/18 18:59:02;;;;;;;3.88;0.95;;;;;;;;;;10441570;28;20187;-74
2022/07/18 19:04:03;;;;;;;6.07;1.90;;;;;;;;;;10439702;28;20982;-75
2022/07/18 19:09:06;;;;;;;4.18;1.27;;;;;;;;;;10441298;28;20187;-75
2022/07/18 19:14:07;;;;;;;3.15;1.08;;;;;;;;;;10440186;28;20210;-74
2022/07/18 19:19:08;;;;;;;4.45;1.30;;;;;;;;;;10440387;28;20198;-75
2022/07/18 19:24:09;;;;;;;2.78;1.50;;;;;;;;;;10441568;28;20190;-76
2022/07/18 19:29:10;;;;;;;1.45;1.10;;;;;;;;;;10440469;28;20647;-74
2022/07/18 19:34:11;;;;;;;2.20;1.30;;;;;;;;;;10443615;28;20221;-74
2022/07/18 19:39:12;;;;;;;1.60;1.30;;;;;;;;;;10449904;28;20627;-75
2022/07/18 19:44:14;;;;;;;2.55;0.95;;;;;;;;;;10445683;28;20187;-75
2022/07/18 19:49:15;;;;;;;2.60;0.85;;;;;;;;;;10450570;28;20310;-74
2022/07/18 19:54:16;;;;;;;1.95;1.02;;;;;;;;;;10440193;28;20206;-75
2022/07/18 19:59:17;;;;;;;2.97;1.10;;;;;;;;;;10443005;28;20176;-75
2022/07/18 20:04:18;;;;;;;2.85;1.00;;;;;;;;;;10469772;28;20229;-75
2022/07/18 20:09:19;;;;;;;1.60;1.38;;;;;;;;;;10439276;28;20187;-75
2022/07/18 20:14:20;;;;;;;4.35;2.10;;;;;;;;;;10439245;28;20213;-76
2022/07/18 20:19:21;;;;;;;1.77;1.25;;;;;;;;;;10449627;28;20300;-75
2022/07/18 20:24:22;;;;;;;1.27;1.00;;;;;;;;;;10440566;28;20630;-75
2022/07/18 20:29:23;;;;;;;4.53;1.20;;;;;;;;;;10433803;28;20247;-75
2022/07/18 20:34:24;;;;;;;3.97;1.17;;;;;;;;;;10446847;28;20226;-75
2022/07/18 20:39:26;;;;;;;5.00;1.35;;;;;;;;;;10446699;28;20600;-75
2022/07/18 20:44:27;;;;;;;7.07;1.17;;;;;;;;;;10448189;28;20218;-75
2022/07/18 20:49:28;;;;;;;6.53;1.10;;;;;;;;;;10447192;28;20238;-75
2022/07/18 20:54:29;;;;;;;0.95;0.95;;;;;;;;;;10455423;28;20823;-75
2022/07/18 20:59:30;;;;;;;1.00;0.90;;;;;;;;;;10458553;28;20280;-75
2022/07/18 21:04:31;;;;;;;5.60;1.13;;;;;;;;;;10447601;28;20250;-75
2022/07/18 21:09:32;;;;;;;4.57;1.17;;;;;;;;;;10449020;28;20206;-75
2022/07/18 21:19:53;;;;;;;2.03;1.27;;;;;;;;;;10453350;28;20217;-74
2022/07/18 21:24:54;;;;;;;7.80;1.45;;;;;;;;;;10448883;28;20197;-75
2022/07/18 21:29:55;;;;;;;5.32;1.67;;;;;;;;;;10448942;28;20227;-75
2022/07/18 21:34:56;;;;;;;4.50;1.40;;;;;;;;;;10448798;28;20264;-75
2022/07/18 21:39:57;;;;;;;4.60;1.10;;;;;;;;;;10454892;28;20240;-74
2022/07/18 21:44:59;;;;;;;6.78;1.50;;;;;;;;;;10456680;28;20199;-75
2022/07/18 21:50:00;;;;;;;3.28;1.20;;;;;;;;;;10447994;28;20205;-75
2022/07/18 21:55:01;;;;;;;2.72;1.23;;;;;;;;;;10445854;28;20203;-74
2022/07/18 22:00:05;;;;;;;2.63;1.50;;;;;;;;;;10448038;28;20175;-75
2022/07/18 22:05:08;;;;;;;8.38;1.40;;;;;;;;;;10452791;28;20681;-75
2022/07/18 22:10:09;;;;;;;3.20;1.50;;;;;;;;;;10450354;28;20190;-75
2022/07/18 22:15:11;;;;;;;3.33;1.13;;;;;;;;;;10453460;28;20206;-72
2022/07/18 22:20:14;;;;;;;2.42;1.40;;;;;;;;;;10462320;28;20190;-73
2022/07/18 22:25:15;;;;;;;5.20;1.08;;;;;;;;;;10445438;28;20258;-72
2022/07/18 22:30:16;;;;;;;2.88;1.30;;;;;;;;;;10441972;28;20721;-72
2022/07/18 22:35:17;;;;;;;2.00;1.27;;;;;;;;;;10443086;28;20229;-72
2022/07/18 22:40:18;;;;;;;2.40;1.15;;;;;;;;;;10425356;28;20175;-74
2022/07/18 22:45:19;;;;;;;1.15;1.02;;;;;;;;;;10443015;28;20571;-74
2022/07/18 22:50:20;;;;;;;1.00;1.00;;;;;;;;;;10430775;28;20217;-73
2022/07/18 22:55:21;;;;;;;3.22;1.08;;;;;;;;;;10442519;28;20210;-73
2022/07/18 23:00:22;;;;;;;3.03;1.30;;;;;;;;;;10443704;28;20183;-71
2022/07/18 23:05:23;;;;;;;2.05;1.08;;;;;;;;;;10456354;28;20179;-73
2022/07/18 23:10:25;;;;;;;6.05;1.17;;;;;;;;;;10441696;28;20182;-72
2022/07/18 23:15:27;;;;;;;3.90;1.35;;;;;;;;;;10440732;28;20532;-72
2022/07/18 23:20:28;;;;;;;2.80;1.40;;;;;;;;;;10457034;28;20287;-73
2022/07/18 23:25:30;;;;;;;3.05;1.20;;;;;;;;;;10450032;28;20182;-73
2022/07/18 23:30:31;;;;;;;3.30;1.27;;;;;;;;;;10451532;28;20264;-73
2022/07/18 23:35:32;;;;;;;0.95;0.95;;;;;;;;;;10441131;28;20217;-73
2022/07/18 23:40:33;;;;;;;8.02;1.40;;;;;;;;;;10441812;28;20215;-73
2022/07/18 23:45:34;;;;;;;2.55;1.10;;;;;;;;;;10442343;28;20187;-73
2022/07/18 23:50:38;;;;;;;5.82;1.52;;;;;;;;;;10444510;28;20272;-73
2022/07/18 23:55:39;;;;;;;3.67;1.00;;;;;;;;;;10439671;28;20678;-74
